Carson Sink, Nevada Weather observations

Data are for observation ending at time listed.
 Day   Time    Ave.   Ave.  Ave.  Vector   Max.   Stn.    Total    Solar   Ave.  
  of    of     Air    Rel.  Wind   Wind    Wind   Baro.  Precip.   Rad.    Soil  
Year   Day     Temp.  Hum.  Speed  Dir.    Gust   Pres.                    Temp. 
2015   (PST)    F      %     mph   deg.    mph     mb.     in.     W/m2     F   
------------------------------------------------------------------------------
 245   10:30   78.7    14    5.0   215     10.4   880.4    0.00     828     78.8
 245   10:40   79.5    13    8.2   215     13.7   880.2    0.00     844     79.1
 245   10:50   80.3    13    6.9   200     15.6   880.1    0.00     857     79.4
 245   11:00   81.5    13    9.5   197     15.8   879.9    0.00     865     79.8
 245   11:10   80.8    13    8.7   232     15.3   879.7    0.00     873     80.2
 245   11:20   81.0    12   10.7   226     16.4   879.5    0.00     877     80.5
 245   11:30   81.5    12    7.5   204     17.4   879.4    0.00     883     80.9
 245   11:40   82.2    12    7.0   199     12.0   879.3    0.00     883     81.3
 245   11:50   83.1    11    9.8   192     18.7   879.1    0.00     885     81.6
 245   12:00   83.4    11   12.5   212     19.6   878.9    0.00     883     82.0
 245   12:10   83.3    11   10.4   190     15.0   878.8    0.00     881     82.4
 245   12:20   82.9    11    4.8   165     10.5   878.8    0.00     873     82.7
 245   12:30   84.2    11    7.7   184     14.1   878.6    0.00     863     83.1
 245   12:40   84.8    11    8.2   180     16.7   878.5    0.00     857     83.5
 245   12:50   85.1    10   12.1   214     22.6   878.3    0.00     851     83.9
 245   13:00   84.9    10    9.4   208     15.8   878.2    0.00     838     84.2
 245   13:10   85.6    10   13.8   216     25.1   877.9    0.00     819     84.6
 245   13:20   86.1    10   12.9   206     23.7   877.8    0.00     817     84.9
 245   13:30   86.2     9   12.3   212     22.3   877.7    0.00     799     85.3
 245   13:40   86.5     9   13.3   221     20.5   877.4    0.00     770     85.6
 245   13:50   85.9    10   14.4   230     23.6   877.2    0.00     532     85.9
 245   14:00   86.3    10   12.8   206     19.4   877.1    0.00     531     86.1
 245   14:10   86.3    10   10.8   235     20.1   876.9    0.00     723     86.4
 245   14:20   86.6    10    6.6   210     13.7   876.9    0.00     675     86.6
 245   14:30   87.5     9    8.1   222     17.0   876.7    0.00     650     86.8
 245   14:40   87.7     9   14.7   223     25.2   876.5    0.00     640     87.0
 245   14:50   87.8     9   14.9   206     24.3   876.4    0.00     616     87.1
 245   15:00   87.9     9   12.6   203     22.8   876.3    0.00     441     87.2
 245   15:10   86.9     9   10.3   224     17.4   876.3    0.00     531     87.3
 245   15:20   87.5     9    8.9   240     23.5   876.1    0.00     519     87.3
 245   15:30   88.1     9   17.0   216     23.2   875.9    0.00     344     87.3
 245   15:40   87.8     9   16.1   218     22.1   875.8    0.00     414     87.3
 245   15:50   88.6     9   13.3   224     21.2   875.8    0.00     464     87.3
 245   16:00   88.7     9   12.3   221     19.9   875.7    0.00     418     87.3
 245   16:10   88.7     9   12.9   209     22.8   875.6    0.00     386     87.3
 245   16:20   89.0     9   12.7   205     23.2   875.5    0.00     349     87.3
 245   16:30   89.1     9   18.8   217     26.2   875.3    0.00     320     87.3
 245   16:40   88.4     9   17.3   218     24.8   875.4    0.00     282     87.3
 245   16:50   88.3     9   13.8   225     20.0   875.4    0.00     247     87.3
 245   17:00   88.1     9   10.8   218     22.7   875.4    0.00     222     87.3
 245   17:10   88.1    10   18.3   247     25.4   875.1    0.00     196     87.3
 245   17:20   87.5    10   14.9   252     21.9   875.2    0.00     163     87.3
 245   17:30   87.1    10   18.4   249     22.1   875.1    0.00     134     87.3
 245   17:40   86.7    11   18.0   256     23.5   875.1    0.00      99     87.3
 245   17:50   85.9    11   19.7   275     26.1   875.4    0.00      60     87.3
 245   18:00   84.4    12   21.6   284     27.7   875.4    0.00      28     87.2
 245   18:10   83.5    12   21.6   291     26.3   875.5    0.00      18     87.1
 245   18:20   82.7    13   19.5   288     25.0   875.6    0.00       8     87.1
 245   18:30   82.0    13   20.0   287     26.3   875.7    0.00       5     87.0
 245   18:40   81.0    14   18.8   282     23.1   875.8    0.00       1     86.9
 245   18:50   80.2    14   17.0   280     21.5   876.0    0.00       0     86.8
 245   19:00   79.5    15   15.9   281     20.0   876.1    0.00       0     86.7
 245   19:10   79.1    15   17.0   276     23.2   876.2    0.00       0     86.6
 245   19:20   78.7    15   17.4   275     21.7   876.4    0.00       0     86.5
 245   19:30   78.2    16   16.3   273     22.4   876.5    0.00       0     86.3
 245   19:40   77.0    16   13.8   284     17.1   876.7    0.00       0     86.1
 245   19:50   76.1    17    9.8   282     12.9   876.9    0.00       0     86.0
 245   20:00   75.4    17    9.7   291     11.6   877.0    0.00       0     85.8
 245   20:10   75.1    17    9.2   291     11.5   877.2    0.00       0     85.7
 245   20:20   74.8    17    8.0   282     10.3   877.3    0.00       0     85.5
 245   20:30   73.6    18    6.3   270      8.2   877.5    0.00       0     85.3
 245   20:40   73.0    18    6.1   272      8.6   877.7    0.00       0     85.2
 245   20:50   72.2    18    4.3   259      5.8   877.9    0.00       0     85.0
 245   21:00   71.7    18    3.3   250      4.0   878.0    0.00       0     84.8
 245   21:10   71.9    18    3.9   258      4.7   878.1    0.00       0     84.6
 245   21:20   72.2    18    5.2   263      6.2   878.2    0.00       0     84.5
 245   21:30   71.7    18    7.2   269     12.1   878.3    0.00       0     84.3
 245   21:40   71.5    17    7.6   268     10.3   878.3    0.00       0     84.1
 245   21:50   70.6    18    7.8   262      9.1   878.4    0.00       0     83.9
 245   22:00   69.5    18    7.9   255      8.8   878.3    0.00       0     83.7
 245   22:10   68.4    19    7.6   248      9.3   878.4    0.00       0     83.5
 245   22:20   67.7    19    8.6   255      9.8   878.4    0.00       0     83.3
 245   22:30   68.2    18    9.0   255     10.9   878.4    0.00       0     83.1
 245   22:40   67.9    18    7.9   256      9.1   878.5    0.00       0     82.9
 245   22:50   68.0    18    8.1   261      9.6   878.6    0.00       0     82.8
 245   23:00   67.6    18    7.5   264      9.6   878.6    0.00       0     82.6
 245   23:10   67.3    19    7.6   267      9.4   878.6    0.00       0     82.4
 245   23:20   67.1    20    7.2   266      8.4   878.7    0.00       0     82.3
 245   23:30   67.1    20    7.5   264      9.6   878.7    0.00       0     82.1
 245   23:40   66.9    20    8.2   272     12.2   878.8    0.00       0     81.9
 245   23:50   67.5    19    9.1   275     11.5   878.8    0.00       0     81.8
 246    0:00   67.4    20    8.8   273     10.4   878.7    0.00       0     81.6
 246    0:10   67.2    20    8.8   270     11.2   878.7    0.00       0     81.4
 246    0:20   66.3    20    8.1   273      9.3   878.6    0.00       0     81.3
 246    0:30   66.2    21    8.4   272      9.9   878.6    0.00       0     81.1
 246    0:40   65.7    21    7.6   269      8.5   878.5    0.00       0     80.9
 246    0:50   65.0    22    7.0   275      7.9   878.5    0.00       0     80.8
 246    1:00   63.4    23    5.6   282      7.5   878.5    0.00       0     80.6
 246    1:10   63.7    23    5.6   285      6.9   878.4    0.00       0     80.5
 246    1:20   63.2    23    5.0   284      6.1   878.4    0.00       0     80.3
 246    1:30   62.0    24    4.9   295      6.1   878.3    0.00       0     80.2
 246    1:40   61.1    25    4.6   293      5.8   878.3    0.00       0     80.0
 246    1:50   61.8    25    4.1   292      5.8   878.4    0.00       0     79.9
 246    2:00   61.2    25    4.2   294      4.7   878.3    0.00       0     79.7
 246    2:10   60.9    26    5.2   295      6.3   878.3    0.00       0     79.6
 246    2:20   61.7    26    6.0   312      7.3   878.3    0.00       0     79.4
 246    2:30   60.9    27    3.8    72      6.2   878.4    0.00       0     79.3
 246    2:40   62.1    27    4.6   100      6.2   878.5    0.00       0     79.1
 246    2:50   64.1    24    1.5    23      2.6   878.5    0.00       0     78.9
 246    3:00   64.8    23    2.2    42      2.9   878.5    0.00       0     78.8
 246    3:10   62.2    27    3.5   137      4.7   878.5    0.00       0     78.6
 246    3:20   62.0    27    1.9   184      3.0   878.5    0.00       0     78.5
 246    3:30   61.1    27    1.4   198      3.1   878.4    0.00       0     78.3
 246    3:40   60.9    28    4.5   202      5.8   878.4    0.00       0     78.2
 246    3:50   59.3    28    3.9   338      5.9   878.4    0.00       0     78.1
 246    4:00   56.1    28    4.5    45      6.6   878.4    0.00       0     77.9
 246    4:10   56.0    29    3.4    51      4.9   878.4    0.00       0     77.8
 246    4:20   55.9    29    3.5    52      4.5   878.4    0.00       0     77.6
 246    4:30   55.6    29    3.4    53      4.2   878.4    0.00       0     77.5
 246    4:40   55.5    29    3.6    45      4.4   878.4    0.00       0     77.3
 246    4:50   55.3    29    4.3    73      5.6   878.3    0.00       0     77.2
 246    5:00   54.9    30    3.9    93      5.3   878.3    0.00       0     77.1
 246    5:10   54.7    32    3.3    51      4.7   878.4    0.00       0     76.9
 246    5:20   54.3    31    4.1    34      4.9   878.4    0.00       1     76.8
 246    5:30   54.4    31    4.2    57      5.4   878.3    0.00       6     76.6
 246    5:40   54.3    30    4.3    47      5.3   878.4    0.00      11     76.5
 246    5:50   53.9    28    5.0    41      6.3   878.5    0.00      36     76.4
 246    6:00   54.4    27    4.8    30      5.8   878.6    0.00      72     76.2
 246    6:10   55.2    26    5.7    23      7.3   878.6    0.00     113     76.1
 246    6:20   56.3    26    5.7    24      7.2   878.7    0.00     147     76.0
 246    6:30   57.7    25    5.0    35      6.1   878.7    0.00     174     75.8
 246    6:40   58.4    24    4.5    29      5.8   878.8    0.00     216     75.7
 246    6:50   59.5    24    3.8    38      5.2   878.8    0.00     223     75.6
 246    7:00   60.3    23    4.2     7      5.3   878.8    0.00     285     75.5
 246    7:10   60.7    23    4.3    15      5.5   878.9    0.00     321     75.4
 246    7:20   62.1    22    4.7    20      5.6   879.0    0.00     355     75.3
 246    7:30   63.4    22    4.3    44      5.8   879.0    0.00     387     75.3
 246    7:40   64.4    21    4.8    52      6.1   879.0    0.00     419     75.2
 246    7:50   65.8    20    4.3    56      6.2   879.0    0.00     450     75.2
 246    8:00   67.2    20    3.5    45      5.0   879.0    0.00     480     75.2
 246    8:10   68.6    19    1.8   340      4.0   879.0    0.00     507     75.2
 246    8:20   69.2    18    1.7   319      4.7   879.0    0.00     535     75.3
 246    8:30   69.9    18    2.2   295      3.4   878.9    0.00     566     75.4
 246    8:40   70.6    17    1.9   272      4.2   878.8    0.00     585     75.5
 246    8:50   71.2    17    2.4   282      4.4   878.8    0.00     619     75.6
 246    9:00   72.1    18    2.1   232      4.0   878.8    0.00     644     75.7
 246    9:10   74.1    18    1.6   226      4.5   878.8    0.00     667     75.9
 246    9:20   75.2    18    3.3   197      7.5   878.7    0.00     690     76.2
 246    9:30   74.9    20    5.1   198     10.7   878.7    0.00     711     76.4
 246    9:40   73.8    22    5.2   235     10.3   878.6    0.00     732     76.6
 246    9:50   73.9    22    5.3   219     11.0   878.6    0.00     755     76.9
 246   10:00   74.3    22    6.7   226     11.8   878.5    0.00     773     77.2
 246   10:10   74.3    22    7.5   254     17.1   878.5    0.00     790     77.5
 246   10:20   74.0    22    6.6   258     20.2   878.4    0.00     805     77.8

Return to Carson Sink graphs page.


Western Regional Climate Center,wrcc@dri.edu